Monday, December 18, 2017, 4:19 PM CST
Back to Local

KIXD, New Century Aircenter

Location: Olathe, KS, United States Lat: 38.817
Local Time: 4:19 PM CST (22:19 GMT) Lon: -94.883
Time Zone: US/Central Elev: 1085 ft

Show me the last for .
Show Decoded

2017-12-18 15:53 METAR KIXD 182153Z 22009KT 10SM CLR 11/03 A3000 RMK AO2 SLP159 T01110028 =
2017-12-18 14:53 METAR KIXD 182053Z 21014KT 10SM CLR 11/03 A3000 RMK AO2 SLP160 T01110028 57022 =
2017-12-18 13:53 METAR KIXD 181953Z 20012KT 10SM CLR 11/03 A3002 RMK AO2 SLP165 T01110033 =
2017-12-18 12:53 METAR KIXD 181853Z 21014KT 10SM CLR 10/03 A3005 RMK AO2 SLP178 T01000028 =
2017-12-18 11:53 METAR KIXD 181753Z 24012KT 10SM CLR 09/03 A3007 RMK AO2 SLP184 T00890028 10089
                 20028 58008 =
2017-12-18 10:53 METAR KIXD 181653Z 22009KT 10SM CLR 07/02 A3009 RMK AO2 SLP193 T00720022 =
2017-12-18 09:53 METAR KIXD 181553Z 21009KT 5SM BR CLR 05/03 A3010 RMK AO2 SLP197 T00500028 =
2017-12-18 08:53 METAR KIXD 181453Z 22008KT 3SM BR FEW004 03/03 A3009 RMK AO2 SLP195 T00330028
                 51007 =
2017-12-18 08:50 METAR KIXD 181450Z 22008KT 2SM BR FEW004 03/03 A3009 RMK AO2 =
2017-12-18 08:14 METAR KIXD 181414Z 22010KT 2 1/2SM BR BKN005 03/03 A3009 RMK AO2 T00280028 =
2017-12-18 07:53 METAR KIXD 181353Z 21009KT 3SM BR BKN005 03/02 A3008 RMK AO2 SLP192 T00280022 =
2017-12-18 07:22 METAR KIXD 181322Z 22008KT 5SM BR BKN006 03/03 A3008 RMK AO2 T00330028 =
2017-12-18 06:58 METAR KIXD 181258Z 22008KT 6SM BR SCT007 SCT013 03/03 A3007 RMK AO2 T00330033 =
2017-12-18 06:53 METAR KIXD 181253Z 22010KT 6SM BR BKN007 BKN013 04/03 A3007 RMK AO2 SLP187
                 T00390033 =
2017-12-18 06:35 METAR KIXD 181235Z 24010KT 6SM BR BKN007 04/04 A3007 RMK AO2 CIG 006V010
                 T00440039 =
2017-12-18 05:53 METAR KIXD 181153Z 22011KT 5SM BR SCT005 OVC012 06/05 A3005 RMK AO2 SLP179 70015
                 T00560050 10061 20056 53004 =
2017-12-18 05:28 METAR KIXD 181128Z AUTO 21006KT 6SM BR FEW009 OVC014 06/06 A3004 RMK AO2
                 T00610056 =
2017-12-18 04:53 METAR KIXD 181053Z AUTO 21006KT 6SM BR OVC015 06/06 A3004 RMK AO2 SLP176
                 T00610056 =
2017-12-18 04:12 METAR KIXD 181012Z AUTO 22006KT 6SM BR BKN019 OVC031 06/06 A3004 RMK AO2
                 T00610056 =
2017-12-18 03:53 METAR KIXD 180953Z AUTO 22006KT 7SM OVC030 06/06 A3004 RMK AO2 SLP175 T00610056
                 =
2017-12-18 03:40 METAR KIXD 180940Z AUTO 22005KT 7SM FEW008 OVC029 06/06 A3004 RMK AO2 T00610056
                 =
2017-12-18 02:53 METAR KIXD 180853Z AUTO 21006KT 7SM OVC027 06/06 A3004 RMK AO2 SLP175 T00610056
                 55001 =
2017-12-18 02:30 METAR KIXD 180830Z AUTO 20007KT 7SM OVC028 06/06 A3003 RMK AO2 T00610056 =
2017-12-18 02:14 METAR KIXD 180814Z AUTO 20006KT 7SM OVC030 06/06 A3003 RMK AO2 T00610056 =
2017-12-18 02:03 METAR KIXD 180803Z AUTO 21004KT 7SM OVC029 06/06 A3003 RMK AO2 T00610056 =
2017-12-18 01:53 METAR KIXD 180753Z AUTO 21004KT 7SM SCT023 OVC031 06/06 A3003 RMK AO2 SLP172
                 T00610056 =
2017-12-18 00:53 METAR KIXD 180653Z AUTO 21006KT 6SM BR OVC019 06/06 A3004 RMK AO2 SLP176
                 T00610061 =
2017-12-18 00:01 METAR KIXD 180601Z AUTO 21008KT 6SM BR SCT006 OVC020 06/06 A3004 RMK AO2
                 T00610056 =
2017-12-17 23:53 METAR KIXD 180553Z AUTO 21008KT 6SM BR BKN006 OVC022 06/06 A3004 RMK AO2 CIG
                 004V009 SLP175 T00610056 10072 20028 400890028 50001 =
2017-12-17 22:53 METAR KIXD 180453Z AUTO 21007KT 6SM BR OVC005 06/06 A3005 RMK AO2 SLP177
                 T00560056 =
2017-12-17 22:14 METAR KIXD 180414Z AUTO 22006KT 6SM BR BKN006 OVC017 06/06 A3004 RMK AO2 CIG
                 004V008 T00560056 =
2017-12-17 22:05 METAR KIXD 180405Z AUTO 22006KT 6SM BR SCT008 OVC017 06/05 A3005 RMK AO2
                 T00560050 =
2017-12-17 21:53 METAR KIXD 180353Z 21004KT 4SM BR BKN017 04/04 A3004 RMK AO2 SLP177 T00440044 =
2017-12-17 20:53 METAR KIXD 180253Z 19007KT 5SM BR CLR 04/03 A3004 RMK AO2 SLP176 T00390033 51008
                 =
2017-12-17 19:53 METAR KIXD 180153Z 16005KT 5SM BR CLR 04/04 A3003 RMK AO2 SLP171 T00440044 =
2017-12-17 18:53 METAR KIXD 180053Z 19005KT 9SM OVC037 07/06 A3003 RMK AO2 SLP173 T00670061 =
2017-12-17 17:53 METAR KIXD 172353Z 18005KT 9SM SCT022 SCT026 OVC036 07/06 A3001 RMK AO2 SLP166
                 T00720061 10083 20072 53009 =
2017-12-17 16:53 METAR KIXD 172253Z 18005KT 9SM SCT029 OVC035 08/06 A3000 RMK AO2 SLP163
                 T00780061 =
2017-12-17 16:46 METAR KIXD 172246Z 18006KT 9SM BKN029 OVC035 08/06 A3000 RMK AO2 T00780061 =

Support USWX by starting your Amazon purchase here.